createdAt,value
2018-03-28T00:01:55.944Z,12.30
2018-03-28T00:03:08.647Z,12.50
2018-03-28T00:04:22.217Z,14.30
2018-03-28T00:05:18.185Z,12.80
2018-03-28T00:06:21.880Z,14.40
2018-03-28T00:07:17.174Z,13.80
2018-03-28T00:08:27.839Z,12.50
2018-03-28T00:09:39.718Z,13.50
2018-03-28T00:10:35.831Z,14.30
2018-03-28T00:11:56.216Z,13.20
2018-03-28T00:12:53.152Z,12.90
2018-03-28T00:13:52.338Z,13.90
2018-03-28T00:15:16.002Z,13.30
2018-03-28T00:16:17.850Z,13.70
2018-03-28T00:17:14.683Z,14.50
2018-03-28T00:18:14.795Z,14.90
2018-03-28T00:19:29.136Z,15.20
2018-03-28T00:20:27.606Z,13.90
2018-03-28T00:21:32.841Z,15.30
2018-03-28T00:22:44.009Z,15.80
2018-03-28T00:23:48.622Z,13.60
2018-03-28T00:25:00.403Z,15.40
2018-03-28T00:26:07.685Z,17.60
2018-03-28T00:27:22.058Z,15.10
2018-03-28T00:28:09.853Z,13.80
2018-03-28T00:29:33.718Z,17.00
2018-03-28T00:30:18.362Z,16.20
2018-03-28T00:31:30.038Z,15.80
2018-03-28T00:32:36.087Z,16.00
2018-03-28T00:33:28.525Z,14.40
2018-03-28T00:34:46.129Z,14.90
2018-03-28T00:36:56.185Z,15.00
2018-03-28T00:40:12.590Z,15.60
2018-03-28T00:41:13.520Z,15.60
2018-03-28T00:42:24.077Z,16.10
2018-03-28T00:43:26.233Z,16.10
2018-03-28T00:44:33.098Z,15.70
2018-03-28T00:45:40.277Z,15.00
2018-03-28T00:46:41.414Z,14.90
2018-03-28T00:47:42.847Z,14.70
2018-03-28T00:48:54.733Z,16.10
2018-03-28T00:51:00.174Z,14.00
2018-03-28T00:52:18.921Z,14.70
2018-03-28T00:53:14.935Z,14.20
2018-03-28T00:54:26.410Z,15.50
2018-03-28T00:55:33.585Z,14.70
2018-03-28T00:56:34.821Z,15.10
2018-03-28T00:57:36.466Z,14.50
2018-03-28T01:00:53.904Z,14.50
2018-03-28T01:02:03.528Z,15.00
2018-03-28T01:03:08.247Z,14.20
2018-03-28T01:04:15.420Z,14.20
2018-03-28T01:05:19.419Z,14.70
2018-03-28T01:06:34.587Z,14.60
2018-03-28T01:07:33.362Z,13.40
2018-03-28T01:08:33.676Z,14.40
2018-03-28T01:10:41.778Z,13.20
2018-03-28T01:11:50.695Z,12.90
2018-03-28T01:12:47.428Z,13.60
2018-03-28T01:15:06.077Z,13.90
2018-03-28T01:16:08.234Z,14.10
2018-03-28T01:17:24.727Z,16.30
2018-03-28T01:18:25.350Z,15.00
2018-03-28T01:19:27.301Z,14.20
2018-03-28T01:21:40.216Z,14.30
2018-03-28T01:22:51.693Z,17.40
2018-03-28T01:24:05.833Z,16.70
2018-03-28T01:24:54.166Z,17.00
2018-03-28T01:26:00.931Z,14.50
2018-03-28T01:27:06.774Z,16.20
2018-03-28T01:28:14.668Z,17.10
2018-03-28T01:29:19.181Z,17.60
2018-03-28T01:30:18.879Z,16.10
2018-03-28T01:31:26.567Z,18.20
2018-03-28T01:32:39.271Z,19.30
2018-03-28T01:34:56.596Z,20.90
2018-03-28T01:35:52.193Z,20.40
2018-03-28T01:36:55.272Z,20.90
2018-03-28T01:38:06.136Z,19.30
2018-03-28T01:39:08.907Z,18.60
2018-03-28T01:40:18.129Z,21.10
2018-03-28T01:41:19.980Z,19.50
2018-03-28T01:42:22.137Z,21.30
2018-03-28T01:43:39.652Z,19.60
2018-03-28T01:44:46.215Z,21.20
2018-03-28T01:45:39.157Z,21.70
2018-03-28T01:46:46.846Z,23.80
2018-03-28T01:49:01.092Z,24.20
2018-03-28T01:51:04.179Z,24.60
2018-03-28T01:52:15.242Z,29.70
2018-03-28T01:53:18.424Z,28.50
2018-03-28T01:54:25.804Z,26.90
2018-03-28T01:57:56.749Z,28.00
2018-03-28T01:59:54.715Z,36.70
2018-03-28T02:01:04.143Z,37.80
2018-03-28T02:02:03.031Z,33.20
2018-03-28T02:03:13.782Z,38.70
2018-03-28T02:05:19.332Z,38.30
2018-03-28T02:07:25.689Z,42.30
2018-03-28T02:08:43.207Z,39.80
2018-03-28T02:09:46.287Z,37.40
2018-03-28T02:10:45.883Z,40.30
2018-03-28T02:12:00.535Z,46.10
2018-03-28T02:12:59.926Z,44.60
2018-03-28T02:14:11.096Z,43.80
2018-03-28T02:15:08.440Z,46.40
2018-03-28T02:16:09.579Z,49.00
2018-03-28T02:17:16.133Z,52.20
2018-03-28T02:18:26.793Z,55.60
2018-03-28T02:19:33.657Z,54.20
2018-03-28T02:20:37.966Z,48.20
2018-03-28T02:21:44.118Z,47.00
2018-03-28T02:22:48.528Z,51.90
2018-03-28T02:23:49.873Z,50.60
2018-03-28T02:25:09.942Z,47.60
2018-03-28T02:26:08.006Z,56.10
2018-03-28T02:27:10.675Z,51.80
2018-03-28T02:28:28.806Z,52.00
2018-03-28T02:29:18.572Z,52.40
2018-03-28T02:30:25.646Z,52.70
2018-03-28T02:31:31.290Z,61.90
2018-03-28T02:32:46.754Z,64.50
2018-03-28T02:33:49.017Z,65.90
2018-03-28T02:34:57.416Z,59.80
2018-03-28T02:35:54.357Z,62.80
2018-03-28T02:38:14.641Z,68.20
2018-03-28T02:39:14.343Z,74.10
2018-03-28T02:40:29.607Z,73.80
2018-03-28T02:41:14.560Z,71.50
2018-03-28T02:42:23.783Z,75.90
2018-03-28T02:43:44.683Z,69.90
2018-03-28T02:45:44.184Z,64.80
2018-03-28T02:47:59.248Z,70.70
2018-03-28T02:49:08.985Z,66.10
2018-03-28T02:50:06.124Z,71.10
2018-03-28T02:51:12.994Z,74.60
2018-03-28T02:52:12.080Z,78.10
2018-03-28T02:53:33.793Z,81.80
2018-03-28T02:54:42.412Z,75.40
2018-03-28T02:55:31.146Z,73.00
2018-03-28T02:56:43.442Z,74.70
2018-03-28T02:58:00.444Z,73.90
2018-03-28T02:59:54.013Z,79.70
2018-03-28T03:01:05.592Z,85.00
2018-03-28T03:02:21.465Z,80.00
2018-03-28T03:03:12.769Z,80.40
2018-03-28T03:04:33.151Z,76.40
2018-03-28T03:05:38.588Z,87.40
2018-03-28T03:06:34.806Z,82.40
2018-03-28T03:07:45.056Z,87.90
2018-03-28T03:08:45.673Z,85.40
2018-03-28T03:11:06.269Z,83.50
2018-03-28T03:14:01.586Z,91.40
2018-03-28T03:15:10.086Z,92.00
2018-03-28T03:16:18.797Z,96.30
2018-03-28T03:18:35.299Z,109.90
2018-03-28T03:19:50.562Z,107.30
2018-03-28T03:21:56.215Z,101.80
2018-03-28T03:22:54.782Z,93.80
2018-03-28T03:24:03.399Z,91.40
2018-03-28T03:25:03.909Z,102.00
2018-03-28T03:26:08.530Z,104.70
2018-03-28T03:27:38.334Z,100.90
2018-03-28T03:28:23.898Z,101.80
2018-03-28T03:29:25.953Z,89.90
2018-03-28T03:30:37.738Z,88.00
2018-03-28T03:31:49.519Z,97.50
2018-03-28T03:32:40.617Z,94.60
2018-03-28T03:33:54.860Z,92.50
2018-03-28T03:36:01.324Z,94.50
2018-03-28T03:37:12.394Z,107.30
2018-03-28T03:38:17.415Z,96.20
2018-03-28T03:39:33.710Z,86.10
2018-03-28T03:40:32.584Z,90.60
2018-03-28T03:43:03.318Z,88.60
2018-03-28T03:43:42.537Z,99.00
2018-03-28T03:44:36.298Z,107.70
2018-03-28T03:46:08.151Z,87.20
2018-03-28T03:47:15.021Z,106.70
2018-03-28T03:48:04.175Z,85.80
2018-03-28T03:50:17.301Z,85.30
2018-03-28T03:51:11.722Z,162.80
2018-03-28T03:53:48.854Z,87.40
2018-03-28T03:55:41.904Z,78.50
2018-03-28T03:57:15.500Z,90.60
2018-03-28T03:57:58.509Z,112.90
2018-03-28T03:59:07.423Z,100.50
2018-03-28T04:00:47.264Z,100.40
2018-03-28T04:01:20.646Z,91.90
2018-03-28T04:02:59.881Z,95.90
2018-03-28T04:04:26.197Z,91.20
2018-03-28T04:05:42.692Z,90.50
2018-03-28T04:07:03.383Z,91.80
2018-03-28T04:07:55.813Z,82.10
2018-03-28T04:09:35.245Z,84.10
2018-03-28T04:11:15.903Z,84.40
2018-03-28T04:12:11.918Z,78.50
2018-03-28T04:14:56.479Z,79.20
2018-03-28T04:15:47.779Z,80.50
2018-03-28T04:16:36.214Z,80.60
2018-03-28T04:18:58.592Z,84.60
2018-03-28T04:19:50.059Z,79.40
2018-03-28T04:21:06.244Z,80.00
2018-03-28T04:22:05.844Z,75.90
2018-03-28T04:24:21.524Z,86.40
2018-03-28T04:25:18.766Z,85.00
2018-03-28T04:27:58.922Z,82.80
2018-03-28T04:28:40.905Z,84.10
2018-03-28T04:29:52.492Z,84.10
2018-03-28T04:31:57.926Z,105.90
2018-03-28T04:32:56.406Z,86.20
2018-03-28T04:36:09.831Z,83.80
2018-03-28T04:37:21.514Z,89.70
2018-03-28T04:40:46.215Z,99.70
2018-03-28T04:41:42.019Z,84.00
2018-03-28T04:42:57.592Z,86.70
2018-03-28T04:43:58.008Z,96.40
2018-03-28T04:45:11.838Z,95.10
2018-03-28T04:46:13.591Z,105.00
2018-03-28T04:47:28.554Z,94.60
2018-03-28T04:48:25.079Z,94.80
2018-03-28T04:50:42.287Z,96.20
2018-03-28T04:51:44.548Z,100.50
2018-03-28T04:52:35.235Z,91.00
2018-03-28T04:55:11.807Z,99.70
2018-03-28T04:56:05.669Z,88.30
2018-03-28T04:57:18.171Z,99.60
2018-03-28T04:58:17.663Z,95.10
2018-03-28T05:00:11.022Z,98.20
2018-03-28T05:01:23.215Z,92.50
2018-03-28T05:02:34.896Z,97.70
2018-03-28T05:04:01.604Z,92.90
2018-03-28T05:05:55.295Z,107.30
2018-03-28T05:07:44.148Z,109.10
2018-03-28T05:09:33.919Z,107.60
2018-03-28T05:12:27.695Z,107.90
2018-03-28T05:13:41.730Z,117.60
2018-03-28T05:15:37.997Z,115.00
2018-03-28T05:17:23.022Z,109.70
2018-03-28T05:17:54.354Z,115.70
2018-03-28T05:19:13.919Z,114.20
2018-03-28T05:20:02.465Z,115.80
2018-03-28T05:21:15.368Z,98.70
2018-03-28T05:22:11.585Z,98.70
2018-03-28T05:23:35.555Z,104.80
2018-03-28T05:24:23.581Z,104.20
2018-03-28T05:26:40.080Z,100.20
2018-03-28T05:27:50.636Z,104.30
2018-03-28T05:29:56.792Z,106.10
2018-03-28T05:31:13.288Z,101.50
2018-03-28T05:32:20.368Z,93.80
2018-03-28T05:33:03.061Z,111.60
2018-03-28T05:34:27.234Z,97.50
2018-03-28T05:35:25.198Z,93.40
2018-03-28T05:37:54.703Z,95.30
2018-03-28T05:38:45.080Z,94.70
2018-03-28T05:40:09.459Z,94.70
2018-03-28T05:40:55.233Z,113.90
2018-03-28T05:41:55.964Z,101.80
2018-03-28T05:43:06.205Z,103.70
2018-03-28T05:44:10.832Z,100.70
2018-03-28T05:45:09.289Z,110.70
2018-03-28T05:46:16.771Z,100.90
2018-03-28T05:47:25.179Z,103.40
2018-03-28T05:51:47.730Z,92.40
2018-03-28T05:52:52.140Z,100.70
2018-03-28T05:54:57.074Z,87.10
2018-03-28T05:57:16.847Z,97.40
2018-03-28T05:58:41.531Z,97.40
2018-03-28T05:59:21.570Z,88.70
2018-03-28T06:01:46.673Z,87.10
2018-03-28T06:02:29.783Z,77.20
2018-03-28T06:03:52.630Z,88.20
2018-03-28T06:04:41.880Z,79.80
2018-03-28T06:06:10.151Z,104.50
2018-03-28T06:07:00.736Z,79.50
2018-03-28T06:09:36.797Z,83.30
2018-03-28T06:10:18.780Z,82.10
2018-03-28T06:11:39.781Z,80.80
2018-03-28T06:12:29.444Z,91.80
2018-03-28T06:14:15.022Z,77.20
2018-03-28T06:14:34.476Z,90.80
2018-03-28T06:15:51.892Z,96.30
2018-03-28T06:17:04.084Z,81.30
2018-03-28T06:19:21.403Z,80.80
2018-03-28T06:20:24.483Z,73.20
2018-03-28T06:21:32.479Z,82.20
2018-03-28T06:22:28.387Z,79.60
2018-03-28T06:24:53.089Z,86.40
2018-03-28T06:25:47.461Z,91.00
2018-03-28T06:26:46.232Z,86.00
2018-03-28T06:28:07.248Z,95.80
2018-03-28T06:29:35.398Z,81.30
2018-03-28T06:30:09.504Z,80.70
2018-03-28T06:31:30.088Z,81.90
2018-03-28T06:32:16.272Z,78.00
2018-03-28T06:33:22.013Z,83.40
2018-03-28T06:34:19.970Z,85.00
2018-03-28T06:35:31.959Z,67.90
2018-03-28T06:36:56.952Z,69.60
2018-03-28T06:38:00.953Z,81.70
2018-03-28T06:38:52.466Z,76.90
2018-03-28T06:39:50.625Z,79.40
2018-03-28T06:42:03.234Z,73.00
2018-03-28T06:44:14.721Z,81.40
2018-03-28T06:45:44.114Z,77.30
2018-03-28T06:46:29.580Z,79.70
2018-03-28T06:47:31.959Z,87.10
2018-03-28T06:49:50.386Z,73.60
2018-03-28T06:51:10.156Z,74.50
2018-03-28T06:51:57.673Z,75.30
2018-03-28T06:53:42.839Z,78.60
2018-03-28T06:54:21.134Z,87.20
2018-03-28T06:55:33.843Z,80.80
2018-03-28T06:57:07.539Z,81.50
2018-03-28T06:57:43.787Z,77.10
2018-03-28T06:58:35.603Z,81.50
2018-03-28T06:59:53.018Z,84.70
2018-03-28T07:01:42.177Z,93.60
2018-03-28T07:02:23.854Z,83.70
2018-03-28T07:03:11.885Z,81.20
2018-03-28T07:05:31.567Z,77.00
2018-03-28T07:06:32.585Z,76.40
2018-03-28T07:07:30.449Z,86.00
2018-03-28T07:09:05.165Z,82.40
2018-03-28T07:10:08.139Z,80.20
2018-03-28T07:10:44.801Z,79.00
2018-03-28T07:12:58.742Z,82.60
2018-03-28T07:14:08.678Z,78.20
2018-03-28T07:15:29.166Z,82.40
2018-03-28T07:17:31.846Z,81.40
2018-03-28T07:19:45.476Z,78.00
2018-03-28T07:20:45.006Z,78.40
2018-03-28T07:21:56.857Z,83.30
2018-03-28T07:23:04.649Z,72.30
2018-03-28T07:23:57.486Z,71.60
2018-03-28T07:25:04.968Z,76.30
2018-03-28T07:26:00.984Z,68.10
2018-03-28T07:27:19.944Z,67.90
2018-03-28T07:28:35.198Z,69.00
2018-03-28T07:29:38.173Z,63.80
2018-03-28T07:31:47.506Z,69.20
2018-03-28T07:32:56.422Z,64.50
2018-03-28T07:33:59.397Z,68.60
2018-03-28T07:35:07.495Z,72.20
2018-03-28T07:36:15.182Z,70.40
2018-03-28T07:38:31.070Z,68.70
2018-03-28T07:39:21.861Z,75.40
2018-03-28T07:40:40.502Z,71.70
2018-03-28T07:41:53.206Z,73.70
2018-03-28T07:43:08.370Z,74.70
2018-03-28T07:43:37.450Z,74.80
2018-03-28T07:45:04.086Z,77.00
2018-03-28T07:45:54.776Z,73.80
2018-03-28T07:48:10.455Z,85.50
2018-03-28T07:49:12.507Z,77.60
2018-03-28T07:50:24.802Z,77.20
2018-03-28T07:51:45.598Z,77.10
2018-03-28T07:52:34.134Z,76.60
2018-03-28T07:53:36.496Z,80.20
2018-03-28T07:54:42.033Z,84.10
2018-03-28T07:55:45.836Z,79.10
2018-03-28T07:56:53.622Z,77.10
2018-03-28T07:58:10.736Z,78.90
2018-03-28T07:59:17.184Z,74.80
2018-03-28T08:00:04.300Z,77.00
2018-03-28T08:01:15.970Z,80.30
2018-03-28T08:02:24.989Z,78.50
2018-03-28T08:03:20.694Z,81.60
2018-03-28T08:04:24.902Z,84.10
2018-03-28T08:05:32.486Z,78.30
2018-03-28T08:07:37.210Z,75.60
2018-03-28T08:08:56.675Z,76.80
2018-03-28T08:10:51.575Z,79.80
2018-03-28T08:12:05.812Z,78.00
2018-03-28T08:13:10.637Z,76.00
2018-03-28T08:15:21.906Z,71.60
2018-03-28T08:16:20.274Z,75.70
2018-03-28T08:17:34.248Z,70.00
2018-03-28T08:18:41.176Z,71.10
2018-03-28T08:20:46.284Z,75.10
2018-03-28T08:21:48.469Z,69.90
2018-03-28T08:22:51.139Z,74.20
2018-03-28T08:24:01.388Z,75.00
2018-03-28T08:25:07.946Z,71.80
2018-03-28T08:26:12.355Z,73.70
2018-03-28T08:27:22.706Z,73.50
2018-03-28T08:28:34.999Z,72.60
2018-03-28T08:30:33.172Z,76.70
2018-03-28T08:31:46.899Z,73.10
2018-03-28T08:32:52.974Z,69.10
2018-03-28T08:34:01.455Z,69.20
2018-03-28T08:35:02.494Z,69.20
2018-03-28T08:36:06.694Z,67.30
2018-03-28T08:37:06.288Z,70.50
2018-03-28T08:38:12.336Z,64.90
2018-03-28T08:39:20.843Z,69.70
2018-03-28T08:40:32.628Z,64.60
2018-03-28T08:41:34.065Z,66.30
2018-03-28T08:42:42.471Z,69.20
2018-03-28T08:43:41.966Z,66.40
2018-03-28T08:46:03.687Z,71.60
2018-03-28T08:47:13.323Z,66.40
2018-03-28T08:48:02.884Z,70.70
2018-03-28T08:49:15.487Z,66.30
2018-03-28T08:50:16.824Z,67.20
2018-03-28T08:51:21.951Z,70.80
2018-03-28T08:53:36.813Z,66.20
2018-03-28T08:55:47.066Z,68.40
2018-03-28T08:56:45.537Z,73.80
2018-03-28T08:57:59.984Z,71.30
2018-03-28T08:58:56.714Z,75.20
2018-03-28T09:01:09.842Z,72.80
2018-03-28T09:02:26.536Z,71.70
2018-03-28T09:03:27.464Z,74.60
2018-03-28T09:05:35.976Z,74.50
2018-03-28T09:06:43.255Z,73.80
2018-03-28T09:07:38.856Z,78.90
2018-03-28T09:09:00.674Z,74.70
2018-03-28T09:09:50.032Z,74.80
2018-03-28T09:11:05.398Z,72.30
2018-03-28T09:12:03.562Z,73.50
2018-03-28T09:13:22.514Z,75.50
2018-03-28T09:14:12.999Z,72.50
2018-03-28T09:15:25.292Z,72.90
2018-03-28T09:16:35.031Z,73.50
2018-03-28T09:18:49.890Z,70.40
2018-03-28T09:19:53.789Z,67.80
2018-03-28T09:20:52.981Z,67.80
2018-03-28T09:22:03.535Z,67.40
2018-03-28T09:23:11.934Z,66.80
2018-03-28T09:24:13.272Z,66.10
2018-03-28T09:26:27.725Z,64.10
2018-03-28T09:27:23.943Z,59.40
2018-03-28T09:28:38.490Z,63.10
2018-03-28T09:29:38.089Z,65.40
2018-03-28T09:31:47.527Z,62.40
2018-03-28T09:33:01.558Z,61.80
2018-03-28T09:35:19.699Z,59.90
2018-03-28T09:36:16.121Z,58.20
2018-03-28T09:37:20.738Z,57.30
2018-03-28T09:38:25.149Z,56.60
2018-03-28T09:40:48.712Z,55.10
2018-03-28T09:41:39.708Z,55.10
2018-03-28T09:43:00.603Z,52.30
2018-03-28T09:44:03.688Z,52.60
2018-03-28T09:44:57.648Z,53.90
2018-03-28T09:45:59.396Z,50.90
2018-03-28T09:47:35.457Z,49.60
2018-03-28T09:48:16.513Z,52.00
2018-03-28T09:49:36.179Z,49.90
2018-03-28T09:50:30.861Z,48.70
2018-03-28T09:51:31.789Z,49.50
2018-03-28T09:52:32.720Z,48.00
2018-03-28T09:53:50.440Z,52.30
2018-03-28T09:57:21.899Z,48.50
2018-03-28T09:57:57.841Z,50.70
2018-03-28T09:58:58.061Z,46.40
2018-03-28T10:00:47.421Z,48.40
2018-03-28T10:01:32.678Z,47.60
2018-03-28T10:02:27.565Z,48.50
2018-03-28T10:03:36.075Z,47.00
2018-03-28T10:04:43.146Z,44.60
2018-03-28T10:05:40.080Z,50.00
2018-03-28T10:07:02.824Z,49.00
2018-03-28T10:07:55.761Z,48.10
2018-03-28T10:09:11.062Z,48.00
2018-03-28T10:10:34.797Z,48.90
2018-03-28T10:11:34.296Z,48.90
2018-03-28T10:12:31.332Z,51.50
2018-03-28T10:13:30.818Z,50.90
2018-03-28T10:14:44.443Z,50.80
2018-03-28T10:16:42.204Z,53.50
2018-03-28T10:17:50.097Z,54.90
2018-03-28T10:18:46.828Z,55.60
2018-03-28T10:20:04.754Z,55.90
2018-03-28T10:21:08.144Z,56.00
2018-03-28T10:22:03.130Z,56.20
2018-03-28T10:26:53.232Z,51.60
2018-03-28T10:27:37.062Z,50.90
2018-03-28T10:30:52.143Z,45.60
2018-03-28T10:32:02.389Z,46.60
2018-03-28T10:32:50.510Z,44.10
2018-03-28T10:34:17.652Z,42.20
2018-03-28T10:36:22.274Z,42.50
2018-03-28T10:38:25.158Z,43.10
2018-03-28T10:39:30.488Z,41.60
2018-03-28T10:40:44.629Z,37.90
2018-03-28T10:41:36.854Z,34.80
2018-03-28T10:42:58.369Z,35.00
2018-03-28T10:43:53.354Z,35.70
2018-03-28T10:46:05.348Z,32.90
2018-03-28T10:48:12.937Z,35.50
2018-03-28T10:49:27.996Z,31.80
2018-03-28T10:50:35.585Z,32.70
2018-03-28T10:51:38.358Z,30.20
2018-03-28T10:52:49.117Z,31.30
2018-03-28T10:53:41.644Z,29.10
2018-03-28T10:54:52.406Z,29.30
2018-03-28T10:55:55.997Z,32.70
2018-03-28T10:57:07.881Z,30.40
2018-03-28T10:58:10.657Z,33.40
2018-03-28T10:59:11.788Z,31.60
2018-03-28T11:01:25.422Z,33.80
2018-03-28T11:02:25.324Z,32.80
2018-03-28T11:03:35.979Z,33.20
2018-03-28T11:04:52.167Z,33.30
2018-03-28T11:05:41.834Z,32.80
2018-03-28T11:07:01.201Z,34.10
2018-03-28T11:09:19.542Z,36.20
2018-03-28T11:09:59.061Z,36.60
2018-03-28T11:11:07.573Z,36.70
2018-03-28T11:12:14.436Z,35.10
2018-03-28T11:13:21.202Z,36.10
2018-03-28T11:15:32.173Z,38.40
2018-03-28T11:16:34.742Z,40.30
2018-03-28T11:17:40.796Z,38.60
2018-03-28T11:19:00.660Z,39.80
2018-03-28T11:21:09.592Z,37.20
2018-03-28T11:23:24.445Z,39.90
2018-03-28T11:24:18.310Z,40.40
2018-03-28T11:25:22.206Z,41.00
2018-03-28T11:27:37.076Z,40.30
2018-03-28T11:28:32.775Z,40.00
2018-03-28T11:29:55.515Z,45.00
2018-03-28T11:30:48.252Z,42.50
2018-03-28T11:33:02.498Z,45.50
2018-03-28T11:34:05.372Z,41.10
2018-03-28T11:36:11.138Z,44.60
2018-03-28T11:37:23.833Z,43.90
2018-03-28T11:39:27.323Z,44.30
2018-03-28T11:40:41.880Z,42.10
2018-03-28T11:41:45.051Z,44.30
2018-03-28T11:42:49.975Z,44.00
2018-03-28T11:43:59.093Z,45.60
2018-03-28T11:46:05.258Z,43.90
2018-03-28T11:47:04.031Z,44.20
2018-03-28T11:48:13.970Z,45.70
2018-03-28T11:49:30.275Z,44.50
2018-03-28T11:50:22.695Z,43.20
2018-03-28T11:51:28.430Z,43.80
2018-03-28T11:52:33.351Z,47.70
2018-03-28T11:53:41.140Z,45.60
2018-03-28T11:54:54.566Z,47.80
2018-03-28T11:55:46.070Z,47.90
2018-03-28T11:56:59.188Z,45.30
2018-03-28T11:58:07.077Z,44.90
2018-03-28T11:59:16.504Z,43.90
2018-03-28T12:00:19.686Z,46.20
2018-03-28T12:02:40.395Z,44.40
2018-03-28T12:04:47.261Z,45.40
2018-03-28T12:05:52.796Z,45.40
2018-03-28T12:07:01.609Z,46.80
2018-03-28T12:08:02.640Z,46.10
2018-03-28T12:09:02.552Z,43.30
2018-03-28T12:09:58.669Z,41.60
2018-03-28T12:11:19.148Z,43.20
2018-03-28T12:12:24.171Z,43.90
2018-03-28T12:13:40.981Z,45.70
2018-03-28T12:14:23.268Z,42.90
2018-03-28T12:15:43.035Z,45.00
2018-03-28T12:16:39.563Z,43.60
2018-03-28T12:17:40.489Z,45.00
2018-03-28T12:18:49.612Z,43.80
2018-03-28T12:20:04.976Z,44.30
2018-03-28T12:21:01.096Z,44.10
2018-03-28T12:22:07.346Z,41.80
2018-03-28T12:23:12.064Z,43.60
2018-03-28T12:24:24.565Z,45.30
2018-03-28T12:25:31.943Z,44.40
2018-03-28T12:27:38.612Z,42.20
2018-03-28T12:32:09.260Z,45.20
2018-03-28T12:33:25.859Z,44.90
2018-03-28T12:34:03.848Z,46.20
2018-03-28T12:35:34.166Z,46.40
2018-03-28T12:38:38.692Z,44.60
2018-03-28T12:39:35.113Z,41.50
2018-03-28T12:40:52.846Z,44.80
2018-03-28T12:41:51.101Z,38.50
2018-03-28T12:43:07.908Z,42.30
2018-03-28T12:45:23.687Z,37.70
2018-03-28T12:46:18.059Z,41.90
2018-03-28T12:47:30.767Z,43.80
2018-03-28T12:48:42.344Z,38.70
2018-03-28T12:49:29.969Z,38.90
2018-03-28T12:50:38.875Z,39.20
2018-03-28T12:51:57.008Z,39.20
2018-03-28T12:52:49.847Z,38.70
2018-03-28T12:55:14.887Z,38.80
2018-03-28T12:55:58.265Z,36.90
2018-03-28T12:57:20.800Z,36.70
2018-03-28T12:59:27.276Z,35.10
2018-03-28T13:00:37.921Z,30.20
2018-03-28T13:01:34.038Z,32.90
2018-03-28T13:03:43.677Z,35.60
2018-03-28T13:07:01.823Z,28.30
2018-03-28T13:09:15.252Z,45.00
2018-03-28T13:10:06.359Z,28.80
2018-03-28T13:11:21.819Z,28.60
2018-03-28T13:12:28.901Z,26.60
2018-03-28T13:15:46.527Z,29.00
2018-03-28T13:16:51.762Z,29.00
2018-03-28T13:17:47.154Z,28.90
2018-03-28T13:19:10.918Z,30.80
2018-03-28T13:19:57.306Z,30.30
2018-03-28T13:21:03.867Z,31.80
2018-03-28T13:22:28.349Z,30.30
2018-03-28T13:25:26.219Z,34.50
2018-03-28T13:26:49.164Z,32.30
2018-03-28T13:27:37.496Z,34.60
2018-03-28T13:28:52.352Z,34.50
2018-03-28T13:30:00.967Z,33.30
2018-03-28T13:30:50.831Z,33.20
2018-03-28T13:32:12.752Z,35.40
2018-03-28T13:33:14.191Z,34.00
2018-03-28T13:34:04.061Z,35.40
2018-03-28T13:35:17.696Z,32.30
2018-03-28T13:36:41.247Z,36.90
2018-03-28T13:37:28.366Z,33.40
2018-03-28T13:39:51.098Z,29.80
2018-03-28T13:43:15.706Z,32.90
2018-03-28T13:44:01.571Z,37.40
2018-03-28T13:45:20.010Z,34.10
2018-03-28T13:46:07.523Z,36.80
2018-03-28T13:47:32.517Z,34.00
2018-03-28T13:48:25.873Z,32.20
2018-03-28T13:49:25.984Z,34.70
2018-03-28T13:50:36.437Z,35.70
2018-03-28T13:51:57.369Z,34.30
2018-03-28T13:52:48.525Z,35.50
2018-03-28T13:53:44.036Z,35.40
2018-03-28T13:54:54.274Z,26.30
2018-03-28T13:57:15.897Z,27.40
2018-03-28T13:57:57.265Z,25.40
2018-03-28T13:59:26.149Z,28.80
2018-03-28T14:00:11.827Z,28.80
2018-03-28T14:02:30.675Z,23.80
2018-03-28T14:03:43.596Z,28.70
2018-03-28T14:04:56.494Z,29.50
2018-03-28T14:06:06.848Z,25.90
2018-03-28T14:06:54.767Z,26.00
2018-03-28T14:08:00.714Z,28.70
2018-03-28T14:09:06.559Z,23.40
2018-03-28T14:10:12.914Z,18.40
2018-03-28T14:11:25.756Z,20.80
2018-03-28T14:12:36.172Z,21.30
2018-03-28T14:13:45.192Z,22.20
2018-03-28T14:15:41.313Z,20.10
2018-03-28T14:16:44.699Z,20.10
2018-03-28T14:17:49.724Z,20.60
2018-03-28T14:19:03.357Z,20.00
2018-03-28T14:20:04.280Z,19.80
2018-03-28T14:21:05.720Z,21.10
2018-03-28T14:22:20.984Z,22.40
2018-03-28T14:23:21.204Z,21.00
2018-03-28T14:25:33.600Z,18.30
2018-03-28T14:26:29.719Z,17.80
2018-03-28T14:27:53.583Z,17.80
2018-03-28T14:28:53.083Z,18.70
2018-03-28T14:30:03.531Z,18.80
2018-03-28T14:31:00.056Z,18.50
2018-03-28T14:33:01.309Z,17.30
2018-03-28T14:36:32.244Z,20.80
2018-03-28T14:37:37.473Z,19.40
2018-03-28T14:38:37.483Z,19.20
2018-03-28T14:40:43.331Z,16.70
2018-03-28T14:42:05.764Z,17.20
2018-03-28T14:43:12.121Z,16.70
2018-03-28T14:44:04.138Z,17.70
2018-03-28T14:45:11.495Z,14.70
2018-03-28T14:47:25.663Z,13.10
2018-03-28T14:51:46.586Z,11.70
2018-03-28T14:53:00.618Z,10.30
2018-03-28T14:54:07.997Z,8.40
2018-03-28T14:55:17.631Z,7.60
2018-03-28T14:57:26.246Z,8.10
2018-03-28T14:58:25.228Z,6.50
2018-03-28T14:59:17.249Z,7.50
2018-03-28T15:01:34.056Z,6.00
2018-03-28T15:02:37.034Z,7.90
2018-03-28T15:04:09.193Z,6.10
2018-03-28T15:06:18.018Z,6.10
2018-03-28T15:08:06.157Z,7.20
2018-03-28T15:09:19.676Z,7.20
2018-03-28T15:10:49.682Z,8.20
2018-03-28T15:13:32.295Z,6.00
2018-03-28T15:14:40.191Z,6.70
2018-03-28T15:15:45.111Z,9.30
2018-03-28T15:16:57.824Z,8.40
2018-03-28T15:17:51.168Z,6.60
2018-03-28T15:19:03.460Z,6.80
2018-03-28T15:19:58.962Z,7.60
2018-03-28T15:22:23.967Z,8.00
2018-03-28T15:23:18.541Z,7.90
2018-03-28T15:24:30.324Z,8.00
2018-03-28T15:25:36.067Z,8.20
2018-03-28T15:26:40.988Z,8.00
2018-03-28T15:27:42.840Z,8.00
2018-03-28T15:28:49.501Z,6.70
2018-03-28T15:29:56.472Z,8.40
2018-03-28T15:30:52.279Z,8.90
2018-03-28T15:32:11.544Z,7.40
2018-03-28T15:34:16.673Z,7.50
2018-03-28T15:35:19.035Z,7.40
2018-03-28T15:37:37.480Z,7.60
2018-03-28T15:38:40.970Z,7.80
2018-03-28T15:39:40.668Z,8.40
2018-03-28T15:40:47.741Z,7.20
2018-03-28T15:42:09.970Z,7.30
2018-03-28T15:42:58.301Z,7.40
2018-03-28T15:44:05.581Z,7.80
2018-03-28T15:47:30.078Z,7.10
2018-03-28T15:49:33.468Z,9.20
2018-03-28T15:50:39.013Z,8.10
2018-03-28T15:51:49.765Z,8.30
2018-03-28T15:52:49.576Z,9.50
2018-03-28T15:54:33.504Z,7.10
2018-03-28T15:55:08.832Z,8.30
2018-03-28T15:59:19.203Z,8.50
2018-03-28T16:00:27.913Z,8.20
2018-03-28T16:01:28.023Z,9.50
2018-03-28T16:03:20.870Z,8.70
2018-03-28T16:04:34.703Z,9.60
2018-03-28T16:05:11.154Z,9.90
2018-03-28T16:07:37.179Z,8.20
2018-03-28T16:08:47.137Z,7.60
2018-03-28T16:09:47.230Z,9.00
2018-03-28T16:10:54.963Z,8.10
2018-03-28T16:11:48.781Z,9.50
2018-03-28T16:13:03.168Z,8.70
2018-03-28T16:16:04.958Z,10.60
2018-03-28T16:17:24.755Z,7.40
2018-03-28T16:18:29.062Z,6.60
2018-03-28T16:19:33.374Z,6.10
2018-03-28T16:21:45.468Z,6.90
2018-03-28T16:22:40.970Z,6.30
2018-03-28T16:23:52.546Z,9.00
2018-03-28T16:25:09.451Z,8.70
2018-03-28T16:26:01.982Z,7.80
2018-03-28T16:27:31.583Z,8.20
2018-03-28T16:28:21.655Z,8.60
2018-03-28T16:29:42.763Z,8.30
2018-03-28T16:30:36.321Z,7.10
2018-03-28T16:31:32.941Z,8.10
2018-03-28T16:32:47.594Z,7.90
2018-03-28T16:33:46.686Z,9.20
2018-03-28T16:34:51.293Z,7.80
2018-03-28T16:36:09.323Z,11.40
2018-03-28T16:38:09.437Z,9.50
2018-03-28T16:41:33.217Z,7.80
2018-03-28T16:42:40.393Z,10.30
2018-03-28T16:44:37.643Z,8.90
2018-03-28T16:46:49.232Z,9.70
2018-03-28T16:47:57.323Z,8.90
2018-03-28T16:49:10.029Z,9.80
2018-03-28T16:50:11.263Z,10.00
2018-03-28T16:51:11.067Z,8.80
2018-03-28T16:53:27.872Z,8.70
2018-03-28T16:54:25.536Z,9.40
2018-03-28T16:55:38.637Z,9.30
2018-03-28T16:56:29.431Z,9.60
2018-03-28T16:57:45.819Z,9.90
2018-03-28T16:58:44.905Z,10.40
2018-03-28T17:00:10.716Z,9.00
2018-03-28T17:01:18.823Z,9.90
2018-03-28T17:03:12.377Z,9.80
2018-03-28T17:04:18.634Z,11.00
2018-03-28T17:05:29.390Z,9.20
2018-03-28T17:06:27.552Z,10.50
2018-03-28T17:08:33.199Z,9.50
2018-03-28T17:09:49.078Z,10.00
2018-03-28T17:10:48.584Z,12.20
2018-03-28T17:12:15.205Z,9.50
2018-03-28T17:12:58.519Z,11.30
2018-03-28T17:13:59.657Z,12.80